首页
METAR-TAF:

METAR-TAF

机场 :

Volk Field Air National Guard Base

Camp Douglas, 威斯康辛州, 美国

纬度: 43-56N, 经度: 090-16W, 海拔: 277米

当前天气观测

该预报发布于37分钟前的05:56 UTC
静风
温度 0°C
湿度 100%
气压 1007 hPa
能見度: 16.1公里
阴天层高于1000英尺

METAR: KVOK 190556Z AUTO 00000KT 10SM OVC010 00/00 A2973 RMK AO2 SLP081 T10031004 10004 21003 400101009 50003 $

时间: 00:33 (06:33 UTC)

预报

该预报发布于14小时和14分钟前的16:19 UTC
预报有效从18日的 16点(UTC)到 19日的 15点(UTC)
风速6节,风向多变
能见度10公里或以上
阴天层高于1000英尺
成为
从 19日的 05点(UTC)到 19日的 06点(UTC)
风速6节,风向多变
能见度10公里或以上
阴天层高于1500英尺
成为
从 19日的 08点(UTC)到 19日的 09点(UTC)
风速6节,风向多变
能見度: 6000
阴天层高于1000英尺
小雨, 雪
成为
从 19日的 11点(UTC)到 19日的 12点(UTC)
风速6节,风向多变
能見度: 8000
阴天层高于1500英尺
小雪

TAF: KVOK 181619Z 1816/1915 VRB06KT 9999 OVC010 620152 QNH2975INS BECMG 1905/1906 VRB06KT 9999 OVC015 620152 620606 QNH2972INS BECMG 1908/1909 VRB06KT 6000 -RASN OVC010 620103 QNH2968INS BECMG 1911/1912 VRB06KT 8000 -SN OVC015 620158 QNH2968INS TX03/1820Z TNM03/1816Z

超过4000个机场的气象观测和天气预报(METAR&TAF报告)。

可查询的气象台以黄色和红色小点在地图上表示。

将鼠标移到小点上方,可查看气象台名称。

然后点击查看天气观测和预报。

如需切换地图:点击带黑十字的绿色按钮放大地图;点击带横线的绿色按钮缩小地图;或者点击绿色箭头查看邻近地区的地图。


METAR-TAF: